createdAt,value
2019-03-23T00:00:01.227Z,8.77
2019-03-23T00:02:42.129Z,8.93
2019-03-23T00:05:22.994Z,8.10
2019-03-23T00:08:03.581Z,8.50
2019-03-23T00:10:44.629Z,9.73
2019-03-23T00:13:25.169Z,9.23
2019-03-23T00:16:05.646Z,8.67
2019-03-23T00:18:46.513Z,9.47
2019-03-23T00:21:27.260Z,9.30
2019-03-23T00:24:07.978Z,9.13
2019-03-23T00:26:48.874Z,8.70
2019-03-23T00:29:29.702Z,8.43
2019-03-23T00:32:10.258Z,8.60
2019-03-23T00:34:51.006Z,8.67
2019-03-23T00:37:31.889Z,9.27
2019-03-23T00:40:12.604Z,8.47
2019-03-23T00:42:53.573Z,8.43
2019-03-23T00:45:34.162Z,8.10
2019-03-23T00:48:15.104Z,8.43
2019-03-23T00:50:55.395Z,8.13
2019-03-23T00:53:35.853Z,8.07
2019-03-23T00:56:16.648Z,8.33
2019-03-23T00:58:56.272Z,8.33
2019-03-23T01:01:44.581Z,8.47
2019-03-23T01:04:33.144Z,7.50
2019-03-23T01:07:21.525Z,7.17
2019-03-23T01:10:10.098Z,7.87
2019-03-23T01:12:58.457Z,8.80
2019-03-23T01:15:48.138Z,7.63
2019-03-23T01:18:36.776Z,8.33
2019-03-23T01:21:25.148Z,7.87
2019-03-23T01:24:13.766Z,7.83
2019-03-23T01:27:02.061Z,7.70
2019-03-23T01:29:50.373Z,7.77
2019-03-23T01:32:31.049Z,7.87
2019-03-23T01:35:12.049Z,7.40
2019-03-23T01:37:52.941Z,8.83
2019-03-23T01:40:36.270Z,8.10
2019-03-23T01:43:15.322Z,8.20
2019-03-23T01:46:03.700Z,8.87
2019-03-23T01:48:52.088Z,8.27
2019-03-23T01:51:40.484Z,7.77
2019-03-23T01:54:28.777Z,8.67
2019-03-23T01:57:17.157Z,8.50
2019-03-23T02:00:05.825Z,8.33
2019-03-23T02:02:54.120Z,8.33
2019-03-23T02:05:42.428Z,8.53
2019-03-23T02:08:30.780Z,9.77
2019-03-23T02:11:19.095Z,9.30
2019-03-23T02:14:07.383Z,9.67
2019-03-23T02:16:55.754Z,8.40
2019-03-23T02:19:44.048Z,11.00
2019-03-23T02:22:32.665Z,9.27
2019-03-23T02:25:21.032Z,9.47
2019-03-23T02:28:09.320Z,9.40
2019-03-23T02:30:50.461Z,8.17
2019-03-23T02:33:31.014Z,8.90
2019-03-23T02:36:11.667Z,8.43
2019-03-23T02:38:52.453Z,8.23
2019-03-23T02:41:33.072Z,8.67
2019-03-23T02:44:14.034Z,7.70
2019-03-23T02:46:54.693Z,8.30
2019-03-23T02:49:34.151Z,8.90
2019-03-23T02:52:22.454Z,8.27
2019-03-23T02:55:11.028Z,9.20
2019-03-23T02:57:59.572Z,7.93
2019-03-23T03:00:47.888Z,8.97
2019-03-23T03:03:36.177Z,8.97
2019-03-23T03:06:24.481Z,8.80
2019-03-23T03:09:12.778Z,8.07
2019-03-23T03:12:01.078Z,9.00
2019-03-23T03:14:49.373Z,8.17
2019-03-23T03:17:37.753Z,9.50
2019-03-23T03:20:26.048Z,8.90
2019-03-23T03:23:14.433Z,8.97
2019-03-23T03:26:02.995Z,9.83
2019-03-23T03:28:51.288Z,9.20
2019-03-23T03:31:32.210Z,9.63
2019-03-23T03:34:12.806Z,9.50
2019-03-23T03:36:53.454Z,10.87
2019-03-23T03:39:32.838Z,8.57
2019-03-23T03:42:21.213Z,9.43
2019-03-23T03:45:09.842Z,9.43
2019-03-23T03:47:58.169Z,9.63
2019-03-23T03:50:46.458Z,9.70
2019-03-23T03:53:35.015Z,9.60
2019-03-23T03:56:23.567Z,10.00
2019-03-23T03:59:12.104Z,9.97
2019-03-23T04:02:00.413Z,9.63
2019-03-23T04:04:48.714Z,9.60
2019-03-23T04:07:37.024Z,10.13
2019-03-23T04:10:25.564Z,14.30
2019-03-23T04:13:13.876Z,11.50
2019-03-23T04:16:02.249Z,11.83
2019-03-23T04:18:50.554Z,10.97
2019-03-23T04:21:38.942Z,11.70
2019-03-23T04:24:27.247Z,12.20
2019-03-23T04:27:15.558Z,13.03
2019-03-23T04:30:04.242Z,12.93
2019-03-23T04:32:45.303Z,12.00
2019-03-23T04:35:26.106Z,11.50
2019-03-23T04:38:07.002Z,12.37
2019-03-23T04:40:47.630Z,12.43
2019-03-23T04:43:28.293Z,10.73
2019-03-23T04:46:08.946Z,11.13
2019-03-23T04:48:49.525Z,10.93
2019-03-23T04:51:30.129Z,11.23
2019-03-23T04:54:10.806Z,12.10
2019-03-23T04:56:51.497Z,10.57
2019-03-23T04:59:32.122Z,10.43
2019-03-23T05:02:12.914Z,10.17
2019-03-23T05:04:53.643Z,10.53
2019-03-23T05:07:34.510Z,11.33
2019-03-23T05:10:15.242Z,10.53
2019-03-23T05:12:55.898Z,10.87
2019-03-23T05:15:36.897Z,12.40
2019-03-23T05:18:17.509Z,11.43
2019-03-23T05:20:58.330Z,11.57
2019-03-23T05:23:39.110Z,11.20
2019-03-23T05:26:19.998Z,11.40
2019-03-23T05:29:00.613Z,10.13
2019-03-23T05:31:41.252Z,10.90
2019-03-23T05:34:21.966Z,10.93
2019-03-23T05:37:02.494Z,9.33
2019-03-23T05:39:43.341Z,11.13
2019-03-23T05:42:23.925Z,11.30
2019-03-23T05:45:04.749Z,11.60
2019-03-23T05:47:45.489Z,11.00
2019-03-23T05:50:26.301Z,11.70
2019-03-23T05:53:07.153Z,11.50
2019-03-23T05:55:47.992Z,11.47
2019-03-23T05:58:28.569Z,10.10
2019-03-23T06:01:09.101Z,10.87
2019-03-23T06:03:49.813Z,9.80
2019-03-23T06:06:30.636Z,11.90
2019-03-23T06:09:11.309Z,12.63
2019-03-23T06:11:52.089Z,13.23
2019-03-23T06:14:33.025Z,11.70
2019-03-23T06:17:13.832Z,11.63
2019-03-23T06:19:55.065Z,10.70
2019-03-23T06:22:35.561Z,10.00
2019-03-23T06:25:16.685Z,9.83
2019-03-23T06:27:46.045Z,10.80
2019-03-23T06:30:27.298Z,10.57
2019-03-23T06:36:20.646Z,9.97
2019-03-23T06:39:05.685Z,9.37
2019-03-23T06:41:43.765Z,9.70
2019-03-23T06:44:24.217Z,9.07
2019-03-23T06:47:04.637Z,10.50
2019-03-23T06:49:45.464Z,10.27
2019-03-23T06:52:25.905Z,9.60
2019-03-23T06:55:06.449Z,10.40
2019-03-23T06:57:46.801Z,10.67
2019-03-23T07:00:27.461Z,10.80
2019-03-23T07:03:08.677Z,11.60
2019-03-23T07:05:49.513Z,11.17
2019-03-23T07:08:32.180Z,11.93
2019-03-23T07:11:12.585Z,11.10
2019-03-23T07:13:53.033Z,12.00
2019-03-23T07:16:33.685Z,12.73
2019-03-23T07:19:14.252Z,10.60
2019-03-23T07:21:55.254Z,11.93
2019-03-23T07:24:35.921Z,12.57
2019-03-23T07:27:16.844Z,12.90
2019-03-23T07:29:58.073Z,13.50
2019-03-23T07:32:39.238Z,13.50
2019-03-23T07:35:19.991Z,15.97
2019-03-23T07:38:01.013Z,14.63
2019-03-23T07:40:41.426Z,13.40
2019-03-23T07:43:22.062Z,14.63
2019-03-23T07:46:02.401Z,14.07
2019-03-23T07:48:43.022Z,15.80
2019-03-23T07:51:23.456Z,15.87
2019-03-23T07:54:04.170Z,16.87
2019-03-23T07:56:44.673Z,16.93
2019-03-23T07:59:25.281Z,16.50
2019-03-23T08:02:05.678Z,15.30
2019-03-23T08:04:35.230Z,16.03
2019-03-23T08:07:23.529Z,17.03
2019-03-23T08:13:27.143Z,15.93
2019-03-23T08:16:15.611Z,15.48
2019-03-23T08:19:03.989Z,16.73
2019-03-23T08:21:52.297Z,16.25
2019-03-23T08:24:40.607Z,16.00
2019-03-23T08:27:28.913Z,16.85
2019-03-23T08:30:17.335Z,16.57
2019-03-23T08:32:57.727Z,17.55
2019-03-23T08:35:38.473Z,21.90
2019-03-23T08:38:19.694Z,18.07
2019-03-23T08:41:00.245Z,17.30
2019-03-23T08:43:40.841Z,18.00
2019-03-23T08:46:22.102Z,17.73
2019-03-23T08:49:03.140Z,18.92
2019-03-23T08:51:43.638Z,18.48
2019-03-23T08:54:24.348Z,18.80
2019-03-23T08:57:04.913Z,19.05
2019-03-23T08:59:45.364Z,19.00
2019-03-23T09:02:24.774Z,20.48
2019-03-23T09:05:13.149Z,18.95
2019-03-23T09:08:01.459Z,20.12
2019-03-23T09:10:49.781Z,19.87
2019-03-23T09:13:40.756Z,20.50
2019-03-23T09:16:28.130Z,20.80
2019-03-23T09:19:16.514Z,20.23
2019-03-23T09:22:05.153Z,21.42
2019-03-23T09:24:57.166Z,20.57
2019-03-23T09:27:43.489Z,20.45
2019-03-23T09:30:31.806Z,21.12
2019-03-23T09:33:20.148Z,21.57
2019-03-23T09:36:08.781Z,20.40
2019-03-23T09:38:57.192Z,21.12
2019-03-23T09:41:45.504Z,19.87
2019-03-23T09:44:33.826Z,20.17
2019-03-23T09:47:22.477Z,20.72
2019-03-23T09:50:10.860Z,21.68
2019-03-23T09:52:59.416Z,20.00
2019-03-23T09:55:47.013Z,21.45
2019-03-23T09:58:34.592Z,20.77
2019-03-23T10:01:22.933Z,21.80
2019-03-23T10:04:11.349Z,20.57
2019-03-23T10:06:41.025Z,21.50
2019-03-23T10:09:29.345Z,20.95
2019-03-23T10:12:17.729Z,20.08
2019-03-23T10:15:06.277Z,20.97
2019-03-23T10:17:54.824Z,20.32
2019-03-23T10:20:43.242Z,21.70
2019-03-23T10:23:31.556Z,20.97
2019-03-23T10:26:19.865Z,20.55
2019-03-23T10:29:08.189Z,21.48
2019-03-23T10:31:49.358Z,21.25
2019-03-23T10:34:30.041Z,21.35
2019-03-23T10:37:10.729Z,21.10
2019-03-23T10:39:51.793Z,21.10
2019-03-23T10:42:32.557Z,21.25
2019-03-23T10:45:13.485Z,21.20
2019-03-23T10:50:33.532Z,21.45
2019-03-23T10:53:23.288Z,19.77
2019-03-23T10:56:11.946Z,21.50
2019-03-23T10:59:00.262Z,22.20
2019-03-23T11:01:48.638Z,21.07
2019-03-23T11:04:36.954Z,23.42
2019-03-23T11:07:25.345Z,23.77
2019-03-23T11:10:13.982Z,23.35
2019-03-23T11:13:02.548Z,22.15
2019-03-23T11:15:50.853Z,22.82
2019-03-23T11:18:39.168Z,24.07
2019-03-23T11:21:27.700Z,22.32
2019-03-23T11:24:16.244Z,24.07
2019-03-23T11:27:04.616Z,22.87
2019-03-23T11:29:52.933Z,23.98
2019-03-23T11:32:33.519Z,22.40
2019-03-23T11:35:14.393Z,23.85
2019-03-23T11:37:54.955Z,24.18
2019-03-23T11:40:35.394Z,22.77
2019-03-23T11:43:16.052Z,24.18
2019-03-23T11:45:56.745Z,24.07
2019-03-23T11:48:37.557Z,23.77
2019-03-23T11:51:18.255Z,24.00
2019-03-23T11:53:58.917Z,24.18
2019-03-23T11:56:40.006Z,25.08
2019-03-23T11:59:20.704Z,24.95
2019-03-23T12:02:01.590Z,25.77
2019-03-23T12:04:42.370Z,24.85
2019-03-23T12:07:23.049Z,24.32
2019-03-23T12:10:03.826Z,25.50
2019-03-23T12:12:44.578Z,24.67
2019-03-23T12:15:25.334Z,25.72
2019-03-23T12:18:06.133Z,27.05
2019-03-23T12:20:46.992Z,27.02
2019-03-23T12:23:27.761Z,27.07
2019-03-23T12:26:08.313Z,28.17
2019-03-23T12:28:48.936Z,27.80
2019-03-23T12:31:29.317Z,27.95
2019-03-23T12:34:10.161Z,27.50
2019-03-23T12:36:50.604Z,27.60
2019-03-23T12:39:31.067Z,29.55
2019-03-23T12:42:11.641Z,27.07
2019-03-23T12:44:52.340Z,28.75
2019-03-23T12:47:33.000Z,27.70
2019-03-23T12:50:13.769Z,28.07
2019-03-23T12:52:54.364Z,24.70
2019-03-23T12:55:35.161Z,25.15
2019-03-23T12:58:15.836Z,25.00
2019-03-23T13:00:56.657Z,23.73
2019-03-23T13:03:37.682Z,25.70
2019-03-23T13:06:18.588Z,23.70
2019-03-23T13:08:59.685Z,24.72
2019-03-23T13:11:40.286Z,25.77
2019-03-23T13:14:21.149Z,27.73
2019-03-23T13:17:01.993Z,26.62
2019-03-23T13:19:42.591Z,25.77
2019-03-23T13:22:23.128Z,24.72
2019-03-23T13:25:03.698Z,23.35
2019-03-23T13:27:44.539Z,24.12
2019-03-23T13:30:25.253Z,20.97
2019-03-23T13:33:06.205Z,20.60
2019-03-23T13:35:46.786Z,26.75
2019-03-23T13:38:27.984Z,26.82
2019-03-23T13:40:57.434Z,24.98
2019-03-23T13:43:45.816Z,25.37
2019-03-23T13:46:34.138Z,26.45
2019-03-23T13:49:22.453Z,24.72
2019-03-23T13:52:11.041Z,27.60
2019-03-23T13:54:59.713Z,27.10
2019-03-23T13:57:48.033Z,25.27
2019-03-23T14:00:36.445Z,27.80
2019-03-23T14:03:24.971Z,27.32
2019-03-23T14:06:13.294Z,27.80
2019-03-23T14:09:01.628Z,29.82
2019-03-23T14:11:54.895Z,28.25
2019-03-23T14:14:40.494Z,26.25
2019-03-23T14:17:09.937Z,29.75
2019-03-23T14:19:58.558Z,28.90
2019-03-23T14:22:47.093Z,27.60
2019-03-23T14:25:35.911Z,29.60
2019-03-23T14:28:24.213Z,29.42
2019-03-23T14:31:05.081Z,27.80
2019-03-23T14:33:45.949Z,28.90
2019-03-23T14:36:26.770Z,27.10
2019-03-23T14:39:07.383Z,27.55
2019-03-23T14:41:48.105Z,27.32
2019-03-23T14:44:28.917Z,27.50
2019-03-23T14:47:09.761Z,26.68
2019-03-23T14:49:50.161Z,28.17
2019-03-23T14:52:30.938Z,27.55
2019-03-23T14:55:12.214Z,26.57
2019-03-23T14:57:52.983Z,28.02
2019-03-23T15:00:33.603Z,25.95
2019-03-23T15:03:14.144Z,27.82
2019-03-23T15:05:55.646Z,26.73
2019-03-23T15:08:34.981Z,27.77
2019-03-23T15:11:23.293Z,27.50
2019-03-23T15:14:11.597Z,26.60
2019-03-23T15:16:59.901Z,26.20
2019-03-23T15:19:48.196Z,27.27
2019-03-23T15:22:36.520Z,25.52
2019-03-23T15:25:24.817Z,26.73
2019-03-23T15:28:13.421Z,23.75
2019-03-23T15:30:52.865Z,24.80
2019-03-23T15:33:41.181Z,25.35
2019-03-23T15:36:29.501Z,23.67
2019-03-23T15:39:17.801Z,22.32
2019-03-23T15:42:06.364Z,24.15
2019-03-23T15:44:54.725Z,24.45
2019-03-23T15:47:43.069Z,23.00
2019-03-23T15:50:31.376Z,24.82
2019-03-23T15:53:19.701Z,23.83
2019-03-23T15:56:08.248Z,23.40
2019-03-23T15:58:56.565Z,23.55
2019-03-23T16:01:44.905Z,23.60
2019-03-23T16:04:33.280Z,21.48
2019-03-23T16:07:29.302Z,21.68
2019-03-23T16:10:11.001Z,20.55
2019-03-23T16:12:59.565Z,22.58
2019-03-23T16:15:47.864Z,23.10
2019-03-23T16:18:36.190Z,22.00
2019-03-23T16:21:24.502Z,22.42
2019-03-23T16:24:12.818Z,21.97
2019-03-23T16:27:01.129Z,21.40
2019-03-23T16:29:49.426Z,20.57
2019-03-23T16:32:30.193Z,21.17
2019-03-23T16:35:10.821Z,20.88
2019-03-23T16:37:51.978Z,20.72
2019-03-23T16:40:32.874Z,19.95
2019-03-23T16:43:14.135Z,20.70
2019-03-23T16:45:54.795Z,20.90
2019-03-23T16:48:35.558Z,20.20
2019-03-23T16:51:16.563Z,22.40
2019-03-23T16:53:57.221Z,30.00
2019-03-23T16:56:38.034Z,22.10
2019-03-23T16:59:19.066Z,20.88
2019-03-23T17:02:00.084Z,21.93
2019-03-23T17:04:40.497Z,19.80
2019-03-23T17:07:21.092Z,18.95
2019-03-23T17:10:01.897Z,19.42
2019-03-23T17:12:42.449Z,18.73
2019-03-23T17:15:23.453Z,20.60
2019-03-23T17:18:03.808Z,19.73
2019-03-23T17:20:44.789Z,19.07
2019-03-23T17:23:25.712Z,20.00
2019-03-23T17:26:05.224Z,18.98
2019-03-23T17:28:53.554Z,18.37
2019-03-23T17:31:34.525Z,18.40
2019-03-23T17:34:14.905Z,19.00
2019-03-23T17:36:55.501Z,19.67
2019-03-23T17:39:36.765Z,19.10
2019-03-23T17:42:17.453Z,17.48
2019-03-23T17:44:58.482Z,20.43
2019-03-23T17:47:39.787Z,19.05
2019-03-23T17:50:20.845Z,21.85
2019-03-23T17:53:01.816Z,24.63
2019-03-23T17:55:42.272Z,25.12
2019-03-23T17:58:22.816Z,25.15
2019-03-23T18:01:04.101Z,23.95
2019-03-23T18:03:44.598Z,23.50
2019-03-23T18:06:25.192Z,22.90
2019-03-23T18:09:05.804Z,23.83
2019-03-23T18:11:46.385Z,22.50
2019-03-23T18:14:27.649Z,22.37
2019-03-23T18:17:08.345Z,21.37
2019-03-23T18:19:49.692Z,23.80
2019-03-23T18:22:19.056Z,20.88
2019-03-23T18:25:07.540Z,20.10
2019-03-23T18:30:57.048Z,27.03
2019-03-23T18:33:37.816Z,23.57
2019-03-23T18:36:17.209Z,21.80
2019-03-23T18:39:05.994Z,22.43
2019-03-23T18:41:54.280Z,21.23
2019-03-23T18:44:42.581Z,20.20
2019-03-23T18:47:31.077Z,21.67
2019-03-23T18:50:19.381Z,20.57
2019-03-23T18:53:07.750Z,20.53
2019-03-23T18:55:56.050Z,24.03
2019-03-23T18:58:44.357Z,21.83
2019-03-23T19:01:32.653Z,21.80
2019-03-23T19:04:20.957Z,23.70
2019-03-23T19:07:09.325Z,21.43
2019-03-23T19:09:57.628Z,23.13
2019-03-23T19:12:46.001Z,22.73
2019-03-23T19:15:34.480Z,22.97
2019-03-23T19:18:22.782Z,22.57
2019-03-23T19:21:11.169Z,23.63
2019-03-23T19:23:59.740Z,24.17
2019-03-23T19:26:48.046Z,24.07
2019-03-23T19:29:36.358Z,25.40
2019-03-23T19:32:17.297Z,25.30
2019-03-23T19:35:00.101Z,26.00
2019-03-23T19:37:40.294Z,25.83
2019-03-23T19:40:20.706Z,23.97
2019-03-23T19:43:01.056Z,25.33
2019-03-23T19:45:41.856Z,24.53
2019-03-23T19:48:22.564Z,25.63
2019-03-23T19:51:03.870Z,25.90
2019-03-23T19:53:44.862Z,26.87
2019-03-23T19:56:25.470Z,25.37
2019-03-23T19:59:06.242Z,23.47
2019-03-23T20:01:46.873Z,23.63
2019-03-23T20:04:28.061Z,23.17
2019-03-23T20:07:08.453Z,25.30
2019-03-23T20:09:49.019Z,24.17
2019-03-23T20:12:29.821Z,24.80
2019-03-23T20:15:10.729Z,26.03
2019-03-23T20:17:51.843Z,25.77
2019-03-23T20:20:32.814Z,26.87
2019-03-23T20:23:13.641Z,25.77
2019-03-23T20:25:54.467Z,28.33
2019-03-23T20:28:35.553Z,27.37
2019-03-23T20:31:16.335Z,26.73
2019-03-23T20:33:56.981Z,28.00
2019-03-23T20:36:37.954Z,27.80
2019-03-23T20:39:18.765Z,27.40
2019-03-23T20:41:59.681Z,28.93
2019-03-23T20:44:40.309Z,26.37
2019-03-23T20:47:21.058Z,23.47
2019-03-23T20:50:01.668Z,25.67
2019-03-23T20:52:42.458Z,25.77
2019-03-23T20:55:23.281Z,25.57
2019-03-23T20:58:03.818Z,25.03
2019-03-23T21:00:44.342Z,25.13
2019-03-23T21:03:14.078Z,23.63
2019-03-23T21:06:02.445Z,24.20
2019-03-23T21:08:50.746Z,24.30
2019-03-23T21:11:39.049Z,24.27
2019-03-23T21:14:27.591Z,22.93
2019-03-23T21:17:16.181Z,26.53
2019-03-23T21:20:04.700Z,25.13
2019-03-23T21:22:53.015Z,27.13
2019-03-23T21:25:41.308Z,25.53
2019-03-23T21:28:29.607Z,26.87
2019-03-23T21:31:10.657Z,28.47
2019-03-23T21:33:51.380Z,30.83
2019-03-23T21:36:32.126Z,30.23
2019-03-23T21:39:12.626Z,29.40
2019-03-23T21:41:53.035Z,31.73
2019-03-23T21:44:33.933Z,29.77
2019-03-23T21:47:14.633Z,30.50
2019-03-23T21:49:55.279Z,29.50
2019-03-23T21:52:36.006Z,30.20
2019-03-23T21:55:16.753Z,30.50
2019-03-23T21:57:57.429Z,28.33
2019-03-23T22:00:37.952Z,30.17
2019-03-23T22:03:18.968Z,31.07
2019-03-23T22:05:59.713Z,30.53
2019-03-23T22:08:40.621Z,31.60
2019-03-23T22:11:21.293Z,30.60
2019-03-23T22:13:51.129Z,28.77
2019-03-23T22:16:39.425Z,29.97
2019-03-23T22:19:27.721Z,30.67
2019-03-23T22:22:16.025Z,30.03
2019-03-23T22:25:04.988Z,30.97
2019-03-23T22:27:53.302Z,29.67
2019-03-23T22:30:41.601Z,28.90
2019-03-23T22:33:30.221Z,31.27
2019-03-23T22:36:18.529Z,33.93
2019-03-23T22:39:07.013Z,30.93
2019-03-23T22:41:55.347Z,27.73
2019-03-23T22:44:52.009Z,28.00
2019-03-23T22:47:33.745Z,28.17
2019-03-23T22:50:22.110Z,28.33
2019-03-23T22:53:10.659Z,27.27
2019-03-23T22:55:58.958Z,29.67
2019-03-23T22:58:47.257Z,29.60
2019-03-23T23:01:35.644Z,28.20
2019-03-23T23:04:24.235Z,25.83
2019-03-23T23:07:12.550Z,26.97
2019-03-23T23:10:00.925Z,28.80
2019-03-23T23:12:49.662Z,27.77
2019-03-23T23:15:38.197Z,28.90
2019-03-23T23:18:26.505Z,29.17
2019-03-23T23:21:15.037Z,23.57
2019-03-23T23:24:03.648Z,26.37
2019-03-23T23:26:51.961Z,26.53
2019-03-23T23:29:40.261Z,25.63
2019-03-23T23:32:21.411Z,24.97
2019-03-23T23:35:02.365Z,26.03
2019-03-23T23:37:43.553Z,28.87
2019-03-23T23:40:23.945Z,30.23
2019-03-23T23:43:04.934Z,30.53
2019-03-23T23:45:45.407Z,30.27
2019-03-23T23:48:25.009Z,30.17
2019-03-23T23:51:13.303Z,30.83
2019-03-23T23:54:01.616Z,28.73
2019-03-23T23:56:50.026Z,31.40
2019-03-23T23:59:38.389Z,30.70
